Time;durP1;ratioP1;P1;durP2;ratioP2;P2;SDS_P1;SDS_P2;PMS_P1;PMS_P2;Temp;Humidity;BMP_temperature;BMP_pressure;BME280_temperature;BME280_humidity;BME280_pressure;Samples;Min_cycle;Max_cycle;Signal;HPM_P1;HPM_P2
2022/08/23 00:00:09;;;;;;;6.68;4.11;;;;;;;23.97;35.69;100950.44;462710;114;923017;-78
2022/08/23 00:01:19;;;;;;;5.25;3.76;;;;;;;23.97;35.67;100953.23;461612;115;922647;-77
2022/08/23 00:02:25;;;;;;;11.35;4.74;;;;;;;23.97;35.65;100956.02;461897;114;922621;-79
2022/08/23 00:03:29;;;;;;;7.59;3.53;;;;;;;23.96;35.61;100962.70;453638;117;922588;-77
2022/08/23 00:04:35;;;;;;;10.25;4.22;;;;;;;23.95;35.61;100952.68;463040;114;922599;-78
2022/08/23 00:05:38;;;;;;;11.13;4.30;;;;;;;23.94;35.58;100953.80;462906;114;922703;-78
2022/08/23 00:06:42;;;;;;;6.36;4.11;;;;;;;23.94;35.54;100959.37;463048;114;923081;-78
2022/08/23 00:07:45;;;;;;;7.24;3.77;;;;;;;23.94;35.53;100957.42;462969;114;922613;-79
2022/08/23 00:08:50;;;;;;;9.19;3.74;;;;;;;23.93;35.44;100952.97;462951;114;930482;-79
2022/08/23 00:09:54;;;;;;;17.00;4.18;;;;;;;23.93;35.47;100958.53;462875;114;922851;-79
2022/08/23 00:10:58;;;;;;;14.64;3.54;;;;;;;23.93;35.46;100958.53;463020;114;922641;-78
2022/08/23 00:12:19;;;;;;;9.95;4.04;;;;;;;23.93;35.47;100957.70;462910;114;930547;-76
2022/08/23 00:13:23;;;;;;;8.32;3.84;;;;;;;23.92;35.51;100961.64;462806;114;930491;-76
2022/08/23 00:14:30;;;;;;;8.24;3.87;;;;;;;23.91;35.47;100968.33;462978;114;922685;-79
2022/08/23 00:15:34;;;;;;;8.46;3.12;;;;;;;23.91;35.44;100965.55;462885;114;922626;-77
2022/08/23 00:16:38;;;;;;;6.67;3.36;;;;;;;23.90;35.45;100967.50;463128;114;922547;-77
2022/08/23 00:17:41;;;;;;;6.67;3.19;;;;;;;23.89;35.45;100965.83;463031;114;923017;-77
2022/08/23 00:18:44;;;;;;;8.08;3.33;;;;;;;23.89;35.54;100973.34;463033;114;923112;-77
2022/08/23 00:19:49;;;;;;;6.75;3.58;;;;;;;23.89;35.52;100967.78;462697;114;923085;-77
2022/08/23 00:20:52;;;;;;;8.89;3.66;;;;;;;23.89;35.54;100973.34;463127;114;922539;-79
2022/08/23 00:21:55;;;;;;;10.12;3.93;;;;;;;23.88;35.59;100977.25;463084;114;922585;-78
2022/08/23 00:22:59;;;;;;;7.68;3.15;;;;;;;23.90;35.61;100975.02;462967;114;923059;-78
2022/08/23 00:24:05;;;;;;;18.86;4.19;;;;;;;23.88;35.57;100980.88;463000;114;930411;-77
2022/08/23 00:25:11;;;;;;;6.17;3.78;;;;;;;23.89;35.60;100976.97;462868;114;922645;-79
2022/08/23 00:26:16;;;;;;;9.11;3.35;;;;;;;23.88;35.59;100977.25;462876;114;922661;-79
2022/08/23 00:27:19;;;;;;;10.26;3.99;;;;;;;23.89;35.64;100981.70;462981;114;923257;-79
2022/08/23 00:28:23;;;;;;;11.22;3.46;;;;;;;23.88;35.65;100989.23;463080;114;923097;-79
2022/08/23 00:29:29;;;;;;;7.86;3.58;;;;;;;23.86;35.64;100985.92;463108;114;922646;-79
2022/08/23 00:30:33;;;;;;;6.90;3.15;;;;;;;23.87;35.59;100983.97;463026;114;922521;-78
2022/08/23 00:31:37;;;;;;;6.07;3.66;;;;;;;23.87;35.65;100987.56;462974;114;922528;-77
2022/08/23 00:32:41;;;;;;;6.37;3.19;;;;;;;23.86;35.59;100991.50;463083;114;922620;-78
2022/08/23 00:33:44;;;;;;;11.35;3.41;;;;;;;23.86;35.64;100987.88;462940;112;923104;-78
2022/08/23 00:34:48;;;;;;;6.16;3.70;;;;;;;23.85;35.64;100989.83;462983;114;923966;-78
2022/08/23 00:35:51;;;;;;;11.00;3.74;;;;;;;23.84;35.63;100988.16;463041;114;923199;-78
2022/08/23 00:36:55;;;;;;;7.97;3.07;;;;;;;23.84;35.65;100987.33;463030;114;923070;-79
2022/08/23 00:37:59;;;;;;;6.75;3.39;;;;;;;23.83;35.57;100994.84;462989;114;922527;-78
2022/08/23 00:39:05;;;;;;;7.78;3.54;;;;;;;23.84;35.50;100995.69;459670;114;923011;-79
2022/08/23 00:40:12;;;;;;;8.52;3.61;;;;;;;23.82;35.53;100995.97;462930;114;923001;-79
2022/08/23 00:41:15;;;;;;;4.51;3.02;;;;;;;23.82;35.51;101000.73;462868;114;922642;-77
2022/08/23 00:47:38;;;;;;;7.83;3.44;;;;;;;23.77;35.59;101004.38;462802;114;922616;-79
2022/08/23 00:48:07;;;;;;;6.80;3.63;;;;;;;23.76;35.61;100999.95;459833;114;922837;-79
2022/08/23 00:49:12;;;;;;;7.28;3.54;;;;;;;23.73;35.62;101008.03;463048;114;922526;-78
2022/08/23 00:50:31;;;;;;;6.32;3.43;;;;;;;23.71;35.66;101008.32;462884;114;922595;-79
2022/08/23 00:51:47;;;;;;;8.13;3.43;;;;;;;23.69;35.68;101003.06;462886;114;923135;-78
2022/08/23 00:53:26;;;;;;;8.17;3.98;;;;;;;23.69;35.70;101008.63;455445;114;922694;-77
2022/08/23 00:54:31;;;;;;;10.43;3.52;;;;;;;23.68;35.76;101006.97;462844;114;923437;-77
2022/08/23 00:55:35;;;;;;;8.88;4.11;;;;;;;23.67;35.85;101010.87;462869;114;922580;-77
2022/08/23 00:56:38;;;;;;;10.08;3.29;;;;;;;23.67;35.85;101010.03;463001;114;922693;-77
2022/08/23 00:57:42;;;;;;;10.76;3.84;;;;;;;23.66;35.90;101008.37;463003;114;922618;-77
2022/08/23 00:58:47;;;;;;;10.08;3.48;;;;;;;23.65;35.91;101015.89;462538;114;930493;-78
2022/08/23 00:59:50;;;;;;;6.11;3.69;;;;;;;23.65;35.85;101015.08;463011;114;923094;-79
2022/08/23 01:00:55;;;;;;;5.29;2.92;;;;;;;23.65;35.86;101024.23;463041;114;922614;-77
2022/08/23 01:01:59;;;;;;;7.89;3.12;;;;;;;23.64;36.08;101017.03;462942;114;922944;-78
2022/08/23 01:03:06;;;;;;;13.55;3.53;;;;;;;23.64;36.08;101017.03;463072;114;922572;-79
2022/08/23 01:04:11;;;;;;;7.93;4.00;;;;;;;23.65;35.92;101026.22;462943;114;922632;-78
2022/08/23 01:05:15;;;;;;;10.20;4.06;;;;;;;23.64;35.89;101022.60;470858;112;922630;-77
2022/08/23 01:06:22;;;;;;;6.79;3.48;;;;;;;23.64;35.95;101028.17;471354;112;922602;-78
2022/08/23 01:07:45;;;;;;;9.58;3.68;;;;;;;23.64;35.95;101018.98;470627;112;922705;-77
2022/08/23 01:08:52;;;;;;;9.08;3.52;;;;;;;23.64;35.95;101030.13;471101;112;923043;-77
2022/08/23 01:10:00;;;;;;;6.77;3.08;;;;;;;23.63;35.97;101028.45;471119;112;922556;-77
2022/08/23 01:11:19;;;;;;;8.48;3.18;;;;;;;23.62;36.02;101026.78;471025;112;922600;-78
2022/08/23 01:12:26;;;;;;;12.91;3.76;;;;;;;23.61;36.01;101023.17;471201;112;922711;-79
2022/08/23 01:13:40;;;;;;;8.06;3.77;;;;;;;23.60;36.02;101029.84;470499;112;922651;-79
2022/08/23 01:15:06;;;;;;;6.68;4.49;;;;;;;23.59;36.08;101033.78;471142;112;922856;-78
2022/08/23 01:16:16;;;;;;;6.92;3.52;;;;;;;23.58;36.03;101032.11;462629;114;923077;-80
2022/08/23 01:17:22;;;;;;;6.67;3.34;;;;;;;23.57;36.04;101037.96;462283;114;922994;-78
2022/08/23 01:18:27;;;;;;;6.38;4.04;;;;;;;23.56;36.04;101039.91;462685;114;923076;-79
2022/08/23 01:19:51;;;;;;;7.05;3.51;;;;;;;23.54;36.08;101039.36;462882;114;923234;-78
2022/08/23 01:21:12;;;;;;;7.19;3.77;;;;;;;23.54;36.06;101038.55;462768;114;930556;-79
2022/08/23 01:22:17;;;;;;;;;;;;;;;23.53;36.04;101045.23;466706;114;922072;-78
2022/08/23 01:23:42;;;;;;;5.17;3.16;;;;;;;23.51;36.18;101048.30;462803;112;922734;-78
2022/08/23 01:24:46;;;;;;;7.41;3.97;;;;;;;23.49;36.13;101046.91;462864;114;922586;-77
2022/08/23 01:25:52;;;;;;;6.93;3.18;;;;;;;23.46;36.14;101053.91;459980;114;922567;-78
2022/08/23 01:26:56;;;;;;;7.07;4.06;;;;;;;23.45;36.17;101048.59;462953;114;923059;-79
2022/08/23 01:27:59;;;;;;;7.29;3.41;;;;;;;23.44;36.16;101047.75;462955;114;922583;-79
2022/08/23 01:29:05;;;;;;;6.41;3.58;;;;;;;23.43;36.20;101048.88;462967;114;922728;-78
2022/08/23 01:30:12;;;;;;;10.34;3.83;;;;;;;23.43;36.21;101057.22;464470;114;930955;-78
2022/08/23 01:31:17;;;;;;;5.79;3.03;;;;;;;23.44;36.16;101060.84;463508;114;922650;-79
2022/08/23 01:32:24;;;;;;;5.93;3.72;;;;;;;23.43;36.17;101057.22;462672;114;922749;-80
2022/08/23 01:33:27;;;;;;;12.51;3.90;;;;;;;23.44;36.20;101055.27;462811;114;922635;-78
2022/08/23 01:34:31;;;;;;;8.09;3.58;;;;;;;23.44;36.20;101052.48;462951;112;923194;-78
2022/08/23 01:35:39;;;;;;;6.07;3.43;;;;;;;23.44;36.19;101055.27;462509;114;922602;-78
2022/08/23 01:36:45;;;;;;;7.75;3.48;;;;;;;23.44;36.19;101060.84;462385;114;923010;-78
2022/08/23 01:37:48;;;;;;;7.31;3.82;;;;;;;23.44;36.24;101055.27;462923;114;922893;-77
2022/08/23 01:38:51;;;;;;;10.01;3.87;;;;;;;23.43;36.18;101064.77;463048;114;922666;-78
2022/08/23 01:39:54;;;;;;;6.39;3.83;;;;;;;23.43;36.15;101060.00;463054;114;923126;-78
2022/08/23 01:40:58;;;;;;;10.88;3.89;;;;;;;23.44;36.15;101058.05;463012;114;922491;-78
2022/08/23 01:42:01;;;;;;;4.97;2.80;;;;;;;23.43;36.15;101059.20;462909;114;930820;-77
2022/08/23 01:43:07;;;;;;;6.69;3.70;;;;;;;23.43;36.16;101060.00;462490;114;922622;-77
2022/08/23 01:44:11;;;;;;;4.88;3.74;;;;;;;23.44;36.19;101064.45;453821;116;923327;-77
2022/08/23 01:45:15;;;;;;;5.69;3.37;;;;;;;23.43;36.18;101062.78;454269;114;922644;-78
2022/08/23 01:46:21;;;;;;;6.45;3.85;;;;;;;23.43;36.24;101065.57;462890;114;922979;-78
2022/08/23 01:47:25;;;;;;;7.51;3.64;;;;;;;23.42;36.25;101061.15;462890;114;922689;-78
2022/08/23 01:48:28;;;;;;;9.16;3.33;;;;;;;23.43;36.29;101071.13;462996;114;922612;-78
2022/08/23 01:49:33;;;;;;;10.26;3.26;;;;;;;23.43;36.27;101070.33;463101;114;923073;-78
2022/08/23 01:50:37;;;;;;;10.51;3.16;;;;;;;23.42;36.30;101072.28;453739;117;922685;-78
2022/08/23 01:51:41;;;;;;;7.01;3.58;;;;;;;23.42;36.34;101074.23;454019;117;923270;-78
2022/08/23 01:52:45;;;;;;;7.30;3.49;;;;;;;23.41;36.27;101070.61;453797;117;922975;-78
2022/08/23 01:53:51;;;;;;;9.49;3.63;;;;;;;23.41;36.31;101066.99;454393;114;930597;-77
2022/08/23 01:54:56;;;;;;;7.02;3.40;;;;;;;23.42;36.34;101068.66;462908;114;922587;-79
2022/08/23 01:56:02;;;;;;;6.82;3.33;;;;;;;23.41;36.33;101066.99;463152;114;922574;-77
2022/08/23 01:57:09;;;;;;;7.56;3.81;;;;;;;23.40;36.36;101068.95;462933;114;923400;-78
2022/08/23 01:58:12;;;;;;;7.38;3.32;;;;;;;23.41;36.39;101069.78;462894;114;922674;-78
2022/08/23 01:59:16;;;;;;;10.18;3.55;;;;;;;23.40;36.35;101066.16;463079;114;923057;-78
2022/08/23 02:00:25;;;;;;;5.84;3.05;;;;;;;23.40;36.41;101066.16;462811;114;923102;-78
2022/08/23 02:01:28;;;;;;;8.51;3.51;;;;;;;23.39;36.40;101064.48;462940;114;922871;-79
2022/08/23 02:02:31;;;;;;;8.98;3.37;;;;;;;23.39;36.41;101069.22;463120;114;922598;-78
2022/08/23 02:03:36;;;;;;;9.27;3.46;;;;;;;23.39;36.41;101072.00;463118;114;922568;-77
2022/08/23 02:04:39;;;;;;;6.44;3.43;;;;;;;23.38;36.43;101073.95;462912;114;922599;-77
2022/08/23 02:05:44;;;;;;;10.91;3.80;;;;;;;23.39;36.43;101075.62;463021;114;922605;-77
2022/08/23 02:06:47;;;;;;;5.70;3.48;;;;;;;23.38;36.40;101073.95;462849;114;930644;-77
2022/08/23 02:07:52;;;;;;;5.86;3.96;;;;;;;23.38;36.43;101073.95;462118;114;922447;-78
2022/08/23 02:09:02;;;;;;;6.49;3.51;;;;;;;23.38;36.48;101073.12;463100;114;922626;-78
2022/08/23 02:10:09;;;;;;;7.22;3.50;;;;;;;23.37;36.47;101066.75;462833;114;922639;-78
2022/08/23 02:11:16;;;;;;;4.14;3.05;;;;;;;23.37;36.47;101082.61;462934;114;922625;-78
2022/08/23 02:12:21;;;;;;;6.32;3.47;;;;;;;23.37;36.52;101077.05;462846;114;922697;-79
2022/08/23 02:13:26;;;;;;;9.83;3.42;;;;;;;23.36;36.50;101079.00;462720;114;922317;-78
2022/08/23 02:14:32;;;;;;;6.43;3.39;;;;;;;23.35;36.51;101076.49;456073;116;922916;-78
2022/08/23 02:15:36;;;;;;;6.69;3.62;;;;;;;23.34;36.51;101075.66;460251;112;923242;-78
2022/08/23 02:16:42;;;;;;;12.76;3.46;;;;;;;23.34;36.52;101078.44;471165;112;922881;-78
2022/08/23 02:17:47;;;;;;;5.36;3.37;;;;;;;23.33;36.53;101087.06;468008;112;922657;-79
2022/08/23 02:18:52;;;;;;;4.85;3.06;;;;;;;23.33;36.49;101087.06;471296;112;922624;-78
2022/08/23 02:19:55;;;;;;;6.49;3.34;;;;;;;23.30;36.69;101094.06;465737;112;922837;-77
2022/08/23 02:20:59;;;;;;;5.89;2.84;;;;;;;23.30;36.69;101094.06;463011;114;922766;-78
2022/08/23 02:22:04;;;;;;;8.85;3.32;;;;;;;23.30;36.62;101085.70;463003;114;922490;-77
2022/08/23 02:23:07;;;;;;;9.52;3.73;;;;;;;23.29;36.67;101093.22;462902;114;922660;-78
2022/08/23 02:24:16;;;;;;;8.26;3.31;;;;;;;23.27;36.66;101091.83;463055;114;922686;-78
2022/08/23 02:25:19;;;;;;;6.25;2.92;;;;;;;23.28;36.66;101096.28;462885;114;923201;-79
2022/08/23 02:26:25;;;;;;;7.85;3.72;;;;;;;23.26;36.66;101092.97;462989;114;922634;-80
2022/08/23 02:27:30;;;;;;;16.46;3.77;;;;;;;23.26;36.66;101102.16;453311;116;922733;-78
2022/08/23 02:28:33;;;;;;;7.86;3.42;;;;;;;23.25;36.68;101097.70;453996;114;922732;-79
2022/08/23 02:29:37;;;;;;;5.36;3.17;;;;;;;23.25;36.65;101099.66;463111;114;922468;-79
2022/08/23 02:30:45;;;;;;;6.39;3.34;;;;;;;23.24;36.68;101103.55;463659;114;922642;-80
2022/08/23 02:31:50;;;;;;;11.14;3.80;;;;;;;23.23;36.77;101099.09;461820;114;922645;-77
2022/08/23 02:32:53;;;;;;;7.69;3.26;;;;;;;23.23;36.78;101096.31;462960;114;922928;-77
2022/08/23 02:33:59;;;;;;;5.79;3.56;;;;;;;23.21;36.77;101104.94;464346;113;922983;-78
2022/08/23 02:35:03;;;;;;;5.70;3.24;;;;;;;23.22;36.78;101103.83;458039;115;923218;-79
2022/08/23 02:36:09;;;;;;;7.63;3.19;;;;;;;23.20;36.76;101097.73;450688;115;930532;-78
2022/08/23 02:37:13;;;;;;;6.19;3.01;;;;;;;23.21;36.81;101104.13;458422;113;922569;-78
2022/08/23 02:38:17;;;;;;;14.09;4.04;;;;;;;23.21;36.80;101109.70;466965;113;922883;-78
2022/08/23 02:39:20;;;;;;;4.96;3.46;;;;;;;23.20;36.79;101108.86;466933;113;922661;-78
2022/08/23 02:40:23;;;;;;;6.58;3.73;;;;;;;23.19;36.80;101109.97;466934;113;922582;-77
2022/08/23 02:41:28;;;;;;;7.92;3.69;;;;;;;23.18;36.86;101108.30;466795;113;930496;-79
2022/08/23 02:42:31;;;;;;;6.20;4.06;;;;;;;23.17;36.80;101106.64;467023;113;922877;-78
2022/08/23 02:43:36;;;;;;;7.25;3.62;;;;;;;23.17;36.82;101108.58;458114;115;922681;-77
2022/08/23 02:44:42;;;;;;;5.68;3.36;;;;;;;23.16;36.88;101112.48;458721;113;922601;-78
2022/08/23 02:45:45;;;;;;;9.84;3.56;;;;;;;23.15;36.85;101111.67;467026;113;922681;-78
2022/08/23 02:46:49;;;;;;;8.14;3.36;;;;;;;23.15;36.85;101113.62;466938;113;923025;-79
2022/08/23 02:47:52;;;;;;;5.24;3.02;;;;;;;23.14;36.92;101115.56;466929;113;922999;-78
2022/08/23 02:48:57;;;;;;;7.17;3.96;;;;;;;23.14;36.94;101114.73;466580;113;922640;-77
2022/08/23 02:50:00;;;;;;;5.86;3.67;;;;;;;23.13;36.99;101110.28;467012;113;923623;-77
2022/08/23 02:51:06;;;;;;;6.03;3.51;;;;;;;23.13;37.01;101118.63;466948;113;922583;-78
2022/08/23 02:52:09;;;;;;;5.38;3.96;;;;;;;23.14;37.10;101120.30;466722;113;930458;-77
2022/08/23 02:53:13;;;;;;;7.50;3.51;;;;;;;23.13;37.10;101115.84;467052;113;922423;-78
2022/08/23 02:54:16;;;;;;;9.77;3.61;;;;;;;23.13;37.13;101118.63;467060;113;923146;-78
2022/08/23 02:55:20;;;;;;;9.18;4.18;;;;;;;23.13;37.16;101116.68;466958;113;922562;-79
2022/08/23 02:56:23;;;;;;;5.76;3.56;;;;;;;23.12;37.20;101117.79;466917;113;930449;-77
2022/08/23 02:57:27;;;;;;;6.79;3.40;;;;;;;23.13;37.21;101113.89;467081;113;922451;-78
2022/08/23 02:58:32;;;;;;;9.81;3.97;;;;;;;23.11;37.12;101107.77;466569;113;922833;-78
2022/08/23 02:59:36;;;;;;;4.06;3.37;;;;;;;23.11;37.12;101107.77;466876;113;922397;-78
2022/08/23 03:00:42;;;;;;;7.59;3.76;;;;;;;23.11;37.30;101118.06;466756;113;930386;-76
2022/08/23 03:01:46;;;;;;;9.63;3.47;;;;;;;23.10;37.33;101111.67;466699;113;922741;-78
2022/08/23 03:02:51;;;;;;;4.65;3.62;;;;;;;23.09;37.35;101114.76;465920;113;922529;-78
2022/08/23 03:03:55;;;;;;;6.09;3.66;;;;;;;23.08;37.42;101118.65;466948;113;922899;-78
2022/08/23 03:04:59;;;;;;;5.43;3.09;;;;;;;23.07;37.43;101119.77;464354;113;922862;-77
2022/08/23 03:06:02;;;;;;;5.87;3.30;;;;;;;23.07;37.48;101119.77;463028;114;922901;-78
2022/08/23 03:07:07;;;;;;;6.77;3.18;;;;;;;23.06;37.55;101115.31;451294;117;923140;-78
2022/08/23 03:08:11;;;;;;;7.91;3.39;;;;;;;23.06;37.60;101118.09;454327;114;922963;-75
2022/08/23 03:09:16;;;;;;;5.78;3.16;;;;;;;23.05;37.67;101120.03;462222;114;930579;-77
2022/08/23 03:10:21;;;;;;;7.02;3.58;;;;;;;23.04;37.64;101112.00;462946;114;922481;-76
2022/08/23 03:11:26;;;;;;;10.12;3.33;;;;;;;23.03;37.64;101118.67;462232;114;923027;-78
2022/08/23 03:12:29;;;;;;;10.00;3.34;;;;;;;23.03;37.75;101122.29;463087;114;922590;-77
2022/08/23 03:13:32;;;;;;;7.61;3.67;;;;;;;23.03;37.74;101118.67;463112;114;922970;-78
2022/08/23 03:14:39;;;;;;;9.63;3.46;;;;;;;23.04;37.79;101117.56;463073;114;922546;-78
2022/08/23 03:15:42;;;;;;;9.77;3.19;;;;;;;23.02;37.79;101115.06;462884;114;922568;-78
2022/08/23 03:16:46;;;;;;;6.30;3.55;;;;;;;23.03;37.84;101110.33;463120;114;922856;-79
2022/08/23 03:17:49;;;;;;;9.16;3.36;;;;;;;23.02;38.05;101117.84;463064;114;923111;-78
2022/08/23 03:18:53;;;;;;;5.51;2.80;;;;;;;23.02;38.05;101117.84;462901;114;922704;-78
2022/08/23 03:19:56;;;;;;;7.43;3.60;;;;;;;23.02;37.94;101119.78;463073;114;922576;-79
2022/08/23 03:21:00;;;;;;;5.92;3.17;;;;;;;23.01;38.01;101120.89;463004;114;922511;-78
2022/08/23 03:22:03;;;;;;;5.69;2.96;;;;;;;23.01;38.08;101115.34;462997;114;922547;-76
2022/08/23 03:23:09;;;;;;;5.99;2.86;;;;;;;23.00;38.10;101117.28;462960;114;930480;-79
2022/08/23 03:24:12;;;;;;;6.92;3.44;;;;;;;23.00;38.20;101124.79;462893;114;926463;-77
2022/08/23 03:25:15;;;;;;;4.40;2.87;;;;;;;23.00;38.18;101124.79;463023;114;923199;-75
2022/08/23 03:26:23;;;;;;;5.15;2.93;;;;;;;22.98;38.20;101125.09;458852;114;922628;-78
2022/08/23 03:27:27;;;;;;;5.42;2.92;;;;;;;22.98;38.26;101127.88;463104;114;922510;-78
2022/08/23 03:28:30;;;;;;;5.02;3.06;;;;;;;22.98;38.29;101135.38;463099;114;922582;-79
2022/08/23 03:29:34;;;;;;;9.48;3.81;;;;;;;22.97;38.37;101128.98;462977;114;922580;-77
2022/08/23 03:30:37;;;;;;;7.15;3.03;;;;;;;22.96;38.34;101127.31;463247;114;922683;-75
2022/08/23 03:31:41;;;;;;;6.67;3.71;;;;;;;22.97;38.38;101128.16;463053;114;922591;-77
2022/08/23 03:32:46;;;;;;;5.66;3.04;;;;;;;22.97;38.38;101130.94;462917;114;922781;-78
2022/08/23 03:33:52;;;;;;;3.33;2.67;;;;;;;22.96;38.45;101123.70;465346;112;922576;-78
2022/08/23 03:34:55;;;;;;;6.98;2.81;;;;;;;22.95;38.42;101127.59;461898;114;922623;-76
2022/08/23 03:36:00;;;;;;;5.53;3.07;;;;;;;22.95;38.42;101127.59;462288;112;923390;-77
2022/08/23 03:37:03;;;;;;;6.64;3.32;;;;;;;22.94;38.46;101134.27;471110;112;930505;-76
2022/08/23 03:38:07;;;;;;;6.92;3.21;;;;;;;22.94;38.44;101135.09;461828;115;923636;-79
2022/08/23 03:39:10;;;;;;;7.62;3.59;;;;;;;22.95;38.48;101135.94;462268;112;922589;-78
2022/08/23 03:40:14;;;;;;;4.86;2.92;;;;;;;22.94;38.48;101129.54;471269;112;923025;-77
2022/08/23 03:41:17;;;;;;;6.78;3.41;;;;;;;22.94;38.46;101134.27;471240;112;930546;-79
2022/08/23 03:42:20;;;;;;;9.27;3.18;;;;;;;22.94;38.45;101137.88;471270;112;922580;-78
2022/08/23 03:43:26;;;;;;;6.77;3.22;;;;;;;22.93;38.40;101139.02;470052;112;922529;-76
2022/08/23 03:44:29;;;;;;;7.48;3.51;;;;;;;22.93;38.42;101136.24;471260;112;923086;-78
2022/08/23 03:45:32;;;;;;;5.72;3.11;;;;;;;22.93;38.47;101138.19;471412;112;922923;-77
2022/08/23 03:46:37;;;;;;;5.51;3.75;;;;;;;22.93;38.46;101138.19;471336;112;922636;-76
2022/08/23 03:47:40;;;;;;;5.58;2.98;;;;;;;22.94;38.49;101145.39;471248;112;922898;-76
2022/08/23 03:48:43;;;;;;;5.41;2.70;;;;;;;22.92;38.49;101140.13;471342;112;922554;-76
2022/08/23 03:49:46;;;;;;;7.73;3.68;;;;;;;22.93;38.53;101143.75;471358;112;922708;-78
2022/08/23 03:50:51;;;;;;;5.62;3.02;;;;;;;22.94;38.55;101145.39;471194;112;922600;-77
2022/08/23 03:51:57;;;;;;;6.74;2.92;;;;;;;22.94;38.52;101151.78;471101;112;930459;-77
2022/08/23 03:53:00;;;;;;;4.69;2.83;;;;;;;22.94;38.56;101146.23;471277;112;922668;-77
2022/08/23 03:54:03;;;;;;;5.49;3.01;;;;;;;22.95;38.62;101147.89;471336;112;930447;-78
2022/08/23 03:55:07;;;;;;;7.47;2.95;;;;;;;22.97;38.64;101155.97;471256;112;923082;-76
2022/08/23 03:56:11;;;;;;;3.76;2.88;;;;;;;22.97;38.75;101155.97;471144;112;930583;-75
2022/08/23 03:57:14;;;;;;;7.88;3.39;;;;;;;22.98;38.78;101154.85;471313;112;930812;-76
2022/08/23 03:58:20;;;;;;;8.82;3.22;;;;;;;22.98;38.80;101158.47;471306;112;922561;-77
2022/08/23 03:59:23;;;;;;;5.13;3.06;;;;;;;22.99;38.86;101153.74;471149;112;922532;-75
2022/08/23 04:00:27;;;;;;;4.72;3.09;;;;;;;23.01;38.88;101157.05;471281;112;922686;-77
2022/08/23 04:01:30;;;;;;;5.60;3.33;;;;;;;23.01;38.93;101152.33;471238;112;930578;-77
2022/08/23 04:02:34;;;;;;;7.10;3.27;;;;;;;23.02;39.01;101159.56;471269;112;922622;-78
2022/08/23 04:03:37;;;;;;;11.39;4.19;;;;;;;23.02;39.00;101158.73;471289;112;922485;-77
2022/08/23 04:04:41;;;;;;;7.61;3.69;;;;;;;23.04;38.98;101154.56;468284;112;930538;-77
2022/08/23 04:06:05;;;;;;;5.94;3.27;;;;;;;23.06;38.92;101165.37;461864;114;922610;-77
2022/08/23 04:07:08;;;;;;;5.78;2.89;;;;;;;23.08;38.88;101163.16;453908;117;922637;-76
2022/08/23 04:08:12;;;;;;;3.59;2.99;;;;;;;23.08;38.97;101160.38;453940;117;923122;-78
2022/08/23 04:09:16;;;;;;;6.36;3.11;;;;;;;23.09;39.05;101162.88;454350;114;930649;-76
2022/08/23 04:10:20;;;;;;;5.98;3.28;;;;;;;23.10;39.07;101167.30;453887;116;922656;-77
2022/08/23 04:11:25;;;;;;;4.86;3.10;;;;;;;23.12;39.09;101164.25;453819;117;922982;-78
2022/08/23 04:12:30;;;;;;;6.69;3.38;;;;;;;23.13;39.04;101172.31;466061;112;930611;-77
2022/08/23 04:13:35;;;;;;;5.18;3.14;;;;;;;23.13;39.02;101163.97;471860;112;922897;-76
2022/08/23 04:14:38;;;;;;;5.41;2.92;;;;;;;23.16;38.94;101176.46;471720;112;922526;-77
2022/08/23 04:15:41;;;;;;;4.45;2.95;;;;;;;23.16;38.98;101171.73;461973;114;930724;-77
2022/08/23 04:16:47;;;;;;;9.26;2.98;;;;;;;23.18;38.93;101177.02;453763;117;922581;-76
2022/08/23 04:17:50;;;;;;;10.12;2.87;;;;;;;23.19;38.89;101175.91;454393;114;922786;-78
2022/08/23 04:18:53;;;;;;;6.29;2.94;;;;;;;23.21;38.88;101179.25;463041;114;922680;-78
2022/08/23 04:19:56;;;;;;;4.17;2.72;;;;;;;23.21;38.82;101179.25;463096;114;922727;-77
2022/08/23 04:21:02;;;;;;;8.09;3.27;;;;;;;23.23;38.81;101177.84;463107;114;922569;-77
2022/08/23 04:22:12;;;;;;;7.91;3.16;;;;;;;23.24;38.81;101173.94;462868;114;922618;-77
2022/08/23 04:23:16;;;;;;;6.16;2.92;;;;;;;23.27;38.73;101189.22;462891;114;922718;-78
2022/08/23 04:24:20;;;;;;;7.42;3.40;;;;;;;23.28;38.69;101185.33;462398;114;922515;-77
2022/08/23 04:25:25;;;;;;;4.20;2.97;;;;;;;23.29;38.72;101181.43;463032;114;922610;-77
2022/08/23 04:26:30;;;;;;;5.24;3.17;;;;;;;23.31;38.64;101190.34;461730;114;923355;-78
2022/08/23 04:27:33;;;;;;;5.69;3.44;;;;;;;23.33;38.64;101190.03;463085;114;922530;-78
2022/08/23 04:28:36;;;;;;;6.22;3.66;;;;;;;23.33;38.55;101185.30;463097;114;922771;-76
2022/08/23 04:29:39;;;;;;;6.71;3.83;;;;;;;23.34;38.53;101184.19;463583;114;922602;-77
2022/08/23 04:30:44;;;;;;;8.92;3.66;;;;;;;23.36;38.55;101187.53;464881;114;922561;-76
2022/08/23 04:31:49;;;;;;;5.73;3.68;;;;;;;23.38;38.49;101188.05;462925;114;922576;-78
2022/08/23 04:32:52;;;;;;;7.59;3.71;;;;;;;23.40;38.48;101187.78;463120;114;922589;-78
2022/08/23 04:33:57;;;;;;;8.08;3.99;;;;;;;23.41;38.49;101184.72;462880;112;922598;-77
2022/08/23 04:35:02;;;;;;;4.94;4.01;;;;;;;23.42;38.51;101188.34;462750;114;923411;-77
2022/08/23 04:36:05;;;;;;;8.61;3.86;;;;;;;23.44;38.50;101186.09;454132;116;922690;-78
2022/08/23 04:37:09;;;;;;;8.32;4.12;;;;;;;23.46;38.51;101189.45;454314;114;923030;-77
2022/08/23 04:38:12;;;;;;;7.71;4.28;;;;;;;23.47;38.58;101194.75;462984;114;922589;-79
2022/08/23 04:39:17;;;;;;;7.16;4.11;;;;;;;23.49;38.55;101186.09;461290;114;930594;-79
2022/08/23 04:43:07;;;;;;;6.74;3.34;;;;;;;23.53;38.45;101187.20;462823;114;923039;-77
2022/08/23 04:44:09;;;;;;;7.43;3.74;;;;;;;23.53;38.38;101188.04;462817;114;922619;-78
2022/08/23 04:45:13;;;;;;;7.81;3.61;;;;;;;23.54;38.37;101184.11;463050;114;922877;-77
2022/08/23 04:46:18;;;;;;;6.02;3.05;;;;;;;23.57;38.31;101191.07;462840;114;922648;-77
2022/08/23 04:47:22;;;;;;;11.31;4.00;;;;;;;23.58;38.34;101189.95;463082;114;922913;-76
2022/08/23 04:48:26;;;;;;;7.99;3.85;;;;;;;23.60;38.35;101196.89;453915;116;922994;-76
2022/08/23 04:49:29;;;;;;;5.84;3.48;;;;;;;23.59;38.33;101192.47;454312;114;923003;-76
2022/08/23 04:50:33;;;;;;;8.29;3.32;;;;;;;23.61;38.24;101192.99;462995;114;922548;-77
2022/08/23 04:51:55;;;;;;;7.48;3.41;;;;;;;23.63;38.22;101196.33;462862;114;922576;-76
2022/08/23 04:52:58;;;;;;;6.28;3.27;;;;;;;23.64;38.16;101199.95;463055;114;922540;-78
2022/08/23 04:54:02;;;;;;;6.35;3.14;;;;;;;23.65;38.15;101191.29;453983;116;922838;-77
2022/08/23 04:55:11;;;;;;;7.00;3.37;;;;;;;23.66;38.20;101195.74;442768;118;930746;-77
2022/08/23 04:56:24;;;;;;;9.77;2.98;;;;;;;23.69;38.22;101194.35;459277;114;922679;-78
2022/08/23 04:57:28;;;;;;;5.11;2.89;;;;;;;23.70;38.25;101193.23;462890;114;922666;-77
2022/08/23 04:58:32;;;;;;;5.06;3.20;;;;;;;23.73;38.24;101197.38;463017;114;922584;-77
2022/08/23 04:59:35;;;;;;;4.89;3.06;;;;;;;23.74;38.23;101194.32;462932;114;925418;-78
2022/08/23 05:00:39;;;;;;;5.84;2.85;;;;;;;23.75;38.22;101192.38;463076;114;922920;-78
2022/08/23 05:01:42;;;;;;;4.73;2.50;;;;;;;23.77;38.25;101202.09;462006;114;922684;-76
2022/08/23 05:02:45;;;;;;;5.80;3.03;;;;;;;23.79;38.28;101197.07;462058;114;922668;-78
2022/08/23 05:03:48;;;;;;;4.91;3.34;;;;;;;23.81;38.28;101197.62;463144;114;923048;-77
2022/08/23 05:04:52;;;;;;;5.76;3.36;;;;;;;23.83;38.28;101197.31;463179;114;922758;-79
2022/08/23 05:05:56;;;;;;;6.90;3.01;;;;;;;23.84;38.24;101202.61;463093;114;922564;-80
2022/08/23 05:07:02;;;;;;;4.79;3.12;;;;;;;23.85;38.23;101195.92;462690;114;923305;-78